sensor_id;sensor_type;location;lat;lon;timestamp;P1;durP1;ratioP1;P2;durP2;ratioP2
16272;SDS011;8244;50.044;9.006;2023-02-10T00:00:03;48.30;;;23.10;;
16272;SDS011;8244;50.044;9.006;2023-02-10T00:05:05;51.47;;;23.70;;
16272;SDS011;8244;50.044;9.006;2023-02-10T00:10:08;49.90;;;22.87;;
16272;SDS011;8244;50.044;9.006;2023-02-10T00:15:10;49.80;;;22.40;;
16272;SDS011;8244;50.044;9.006;2023-02-10T00:20:12;46.10;;;22.33;;
16272;SDS011;8244;50.044;9.006;2023-02-10T00:25:14;50.07;;;22.27;;
16272;SDS011;8244;50.044;9.006;2023-02-10T00:30:16;47.77;;;23.10;;
16272;SDS011;8244;50.044;9.006;2023-02-10T00:35:18;49.37;;;24.80;;
16272;SDS011;8244;50.044;9.006;2023-02-10T00:40:21;49.30;;;23.30;;
16272;SDS011;8244;50.044;9.006;2023-02-10T00:45:23;50.20;;;23.37;;
16272;SDS011;8244;50.044;9.006;2023-02-10T00:50:24;51.83;;;23.60;;
16272;SDS011;8244;50.044;9.006;2023-02-10T00:55:27;48.33;;;23.13;;
16272;SDS011;8244;50.044;9.006;2023-02-10T01:00:29;48.50;;;22.80;;
16272;SDS011;8244;50.044;9.006;2023-02-10T01:05:30;46.37;;;22.43;;
16272;SDS011;8244;50.044;9.006;2023-02-10T01:10:34;48.23;;;23.30;;
16272;SDS011;8244;50.044;9.006;2023-02-10T01:15:36;50.77;;;23.80;;
16272;SDS011;8244;50.044;9.006;2023-02-10T01:20:42;52.23;;;24.30;;
16272;SDS011;8244;50.044;9.006;2023-02-10T01:25:45;48.53;;;22.43;;
16272;SDS011;8244;50.044;9.006;2023-02-10T01:30:47;53.77;;;23.53;;
16272;SDS011;8244;50.044;9.006;2023-02-10T01:35:48;48.60;;;23.17;;
16272;SDS011;8244;50.044;9.006;2023-02-10T01:40:51;50.20;;;23.07;;
16272;SDS011;8244;50.044;9.006;2023-02-10T01:45:53;47.43;;;22.03;;
16272;SDS011;8244;50.044;9.006;2023-02-10T01:50:56;49.90;;;22.53;;
16272;SDS011;8244;50.044;9.006;2023-02-10T01:56:02;44.73;;;21.70;;
16272;SDS011;8244;50.044;9.006;2023-02-10T02:01:04;53.30;;;23.20;;
16272;SDS011;8244;50.044;9.006;2023-02-10T02:06:06;49.27;;;22.20;;
16272;SDS011;8244;50.044;9.006;2023-02-10T02:11:12;53.17;;;22.90;;
16272;SDS011;8244;50.044;9.006;2023-02-10T02:16:25;45.67;;;22.23;;
16272;SDS011;8244;50.044;9.006;2023-02-10T02:27:19;46.23;;;22.23;;
16272;SDS011;8244;50.044;9.006;2023-02-10T02:32:37;47.53;;;22.03;;
16272;SDS011;8244;50.044;9.006;2023-02-10T02:37:41;54.63;;;23.77;;
16272;SDS011;8244;50.044;9.006;2023-02-10T02:42:43;47.37;;;21.73;;
16272;SDS011;8244;50.044;9.006;2023-02-10T02:47:56;46.63;;;21.80;;
16272;SDS011;8244;50.044;9.006;2023-02-10T02:53:12;49.03;;;21.27;;
16272;SDS011;8244;50.044;9.006;2023-02-10T02:58:24;48.33;;;22.70;;
16272;SDS011;8244;50.044;9.006;2023-02-10T03:03:34;52.00;;;22.00;;
16272;SDS011;8244;50.044;9.006;2023-02-10T03:08:37;52.83;;;22.33;;
16272;SDS011;8244;50.044;9.006;2023-02-10T03:13:41;43.23;;;20.37;;
16272;SDS011;8244;50.044;9.006;2023-02-10T03:18:44;50.40;;;22.47;;
16272;SDS011;8244;50.044;9.006;2023-02-10T03:23:45;51.23;;;23.83;;
16272;SDS011;8244;50.044;9.006;2023-02-10T03:28:47;52.63;;;23.77;;
16272;SDS011;8244;50.044;9.006;2023-02-10T03:33:50;45.87;;;22.43;;
16272;SDS011;8244;50.044;9.006;2023-02-10T03:38:52;49.93;;;23.30;;
16272;SDS011;8244;50.044;9.006;2023-02-10T03:43:53;46.60;;;24.30;;
16272;SDS011;8244;50.044;9.006;2023-02-10T03:48:56;52.67;;;24.07;;
16272;SDS011;8244;50.044;9.006;2023-02-10T03:53:58;54.13;;;24.80;;
16272;SDS011;8244;50.044;9.006;2023-02-10T03:59:00;55.73;;;25.47;;
16272;SDS011;8244;50.044;9.006;2023-02-10T04:04:03;51.23;;;24.40;;
16272;SDS011;8244;50.044;9.006;2023-02-10T04:09:05;50.73;;;24.00;;
16272;SDS011;8244;50.044;9.006;2023-02-10T04:14:06;52.20;;;24.53;;
16272;SDS011;8244;50.044;9.006;2023-02-10T04:19:09;47.40;;;24.03;;
16272;SDS011;8244;50.044;9.006;2023-02-10T04:24:11;48.93;;;23.67;;
16272;SDS011;8244;50.044;9.006;2023-02-10T04:29:12;47.03;;;23.40;;
16272;SDS011;8244;50.044;9.006;2023-02-10T04:34:15;44.87;;;23.07;;
16272;SDS011;8244;50.044;9.006;2023-02-10T04:39:17;45.53;;;22.10;;
16272;SDS011;8244;50.044;9.006;2023-02-10T04:44:19;50.33;;;23.53;;
16272;SDS011;8244;50.044;9.006;2023-02-10T04:49:23;46.53;;;23.60;;
16272;SDS011;8244;50.044;9.006;2023-02-10T04:54:26;45.87;;;22.73;;
16272;SDS011;8244;50.044;9.006;2023-02-10T04:59:28;46.83;;;22.50;;
16272;SDS011;8244;50.044;9.006;2023-02-10T05:04:31;46.10;;;22.67;;
16272;SDS011;8244;50.044;9.006;2023-02-10T05:09:33;43.47;;;21.50;;
16272;SDS011;8244;50.044;9.006;2023-02-10T05:14:34;47.57;;;22.43;;
16272;SDS011;8244;50.044;9.006;2023-02-10T05:19:37;48.57;;;23.73;;
16272;SDS011;8244;50.044;9.006;2023-02-10T05:24:39;44.50;;;22.83;;
16272;SDS011;8244;50.044;9.006;2023-02-10T05:29:41;45.33;;;23.17;;
16272;SDS011;8244;50.044;9.006;2023-02-10T05:34:44;46.17;;;22.47;;
16272;SDS011;8244;50.044;9.006;2023-02-10T05:39:46;45.37;;;23.10;;
16272;SDS011;8244;50.044;9.006;2023-02-10T05:44:48;41.63;;;21.83;;
16272;SDS011;8244;50.044;9.006;2023-02-10T05:49:51;45.03;;;21.67;;
16272;SDS011;8244;50.044;9.006;2023-02-10T05:54:52;41.37;;;21.70;;
16272;SDS011;8244;50.044;9.006;2023-02-10T05:59:54;47.30;;;22.57;;
16272;SDS011;8244;50.044;9.006;2023-02-10T06:04:57;43.13;;;21.03;;
16272;SDS011;8244;50.044;9.006;2023-02-10T06:09:58;44.50;;;22.57;;
16272;SDS011;8244;50.044;9.006;2023-02-10T06:15:00;43.63;;;23.57;;
16272;SDS011;8244;50.044;9.006;2023-02-10T06:20:03;45.07;;;21.87;;
16272;SDS011;8244;50.044;9.006;2023-02-10T06:25:06;44.30;;;22.70;;
16272;SDS011;8244;50.044;9.006;2023-02-10T06:30:09;42.47;;;21.50;;
16272;SDS011;8244;50.044;9.006;2023-02-10T06:35:13;41.63;;;22.50;;
16272;SDS011;8244;50.044;9.006;2023-02-10T06:40:15;46.73;;;23.97;;
16272;SDS011;8244;50.044;9.006;2023-02-10T06:45:17;44.63;;;23.77;;
16272;SDS011;8244;50.044;9.006;2023-02-10T06:50:20;53.33;;;27.17;;
16272;SDS011;8244;50.044;9.006;2023-02-10T06:55:22;50.87;;;26.03;;
16272;SDS011;8244;50.044;9.006;2023-02-10T07:00:23;44.17;;;22.80;;
16272;SDS011;8244;50.044;9.006;2023-02-10T07:05:26;42.97;;;21.50;;
16272;SDS011;8244;50.044;9.006;2023-02-10T07:10:28;45.73;;;24.13;;
16272;SDS011;8244;50.044;9.006;2023-02-10T07:15:30;46.47;;;22.97;;
16272;SDS011;8244;50.044;9.006;2023-02-10T07:20:33;41.53;;;22.23;;
16272;SDS011;8244;50.044;9.006;2023-02-10T07:25:35;46.20;;;22.63;;
16272;SDS011;8244;50.044;9.006;2023-02-10T07:30:37;45.67;;;23.73;;
16272;SDS011;8244;50.044;9.006;2023-02-10T07:35:40;43.57;;;22.53;;
16272;SDS011;8244;50.044;9.006;2023-02-10T07:40:41;44.50;;;22.03;;
16272;SDS011;8244;50.044;9.006;2023-02-10T07:45:43;42.10;;;22.57;;
16272;SDS011;8244;50.044;9.006;2023-02-10T07:50:47;40.43;;;21.87;;
16272;SDS011;8244;50.044;9.006;2023-02-10T07:55:49;44.53;;;22.57;;
16272;SDS011;8244;50.044;9.006;2023-02-10T08:00:50;40.67;;;22.17;;
16272;SDS011;8244;50.044;9.006;2023-02-10T08:05:53;50.97;;;22.57;;
16272;SDS011;8244;50.044;9.006;2023-02-10T08:10:55;44.00;;;21.67;;
16272;SDS011;8244;50.044;9.006;2023-02-10T08:15:57;41.27;;;21.93;;
16272;SDS011;8244;50.044;9.006;2023-02-10T08:21:00;40.77;;;21.50;;
16272;SDS011;8244;50.044;9.006;2023-02-10T08:26:02;45.80;;;22.30;;
16272;SDS011;8244;50.044;9.006;2023-02-10T08:31:06;40.53;;;22.37;;
16272;SDS011;8244;50.044;9.006;2023-02-10T08:36:11;41.30;;;22.27;;
16272;SDS011;8244;50.044;9.006;2023-02-10T08:41:14;40.20;;;21.00;;
16272;SDS011;8244;50.044;9.006;2023-02-10T08:46:16;37.33;;;21.00;;
16272;SDS011;8244;50.044;9.006;2023-02-10T08:51:19;37.97;;;21.73;;
16272;SDS011;8244;50.044;9.006;2023-02-10T08:56:21;38.77;;;21.37;;
16272;SDS011;8244;50.044;9.006;2023-02-10T09:01:24;40.20;;;22.03;;
16272;SDS011;8244;50.044;9.006;2023-02-10T09:06:28;37.83;;;20.53;;
16272;SDS011;8244;50.044;9.006;2023-02-10T09:11:33;37.67;;;21.57;;
16272;SDS011;8244;50.044;9.006;2023-02-10T09:16:34;41.53;;;21.43;;
16272;SDS011;8244;50.044;9.006;2023-02-10T09:21:37;39.37;;;21.27;;
16272;SDS011;8244;50.044;9.006;2023-02-10T09:26:39;39.83;;;22.00;;
16272;SDS011;8244;50.044;9.006;2023-02-10T09:31:41;37.43;;;20.73;;
16272;SDS011;8244;50.044;9.006;2023-02-10T09:36:44;38.00;;;22.73;;
16272;SDS011;8244;50.044;9.006;2023-02-10T09:41:48;41.93;;;21.40;;
16272;SDS011;8244;50.044;9.006;2023-02-10T09:47:04;39.87;;;21.87;;
16272;SDS011;8244;50.044;9.006;2023-02-10T09:52:21;39.40;;;20.90;;
16272;SDS011;8244;50.044;9.006;2023-02-10T09:57:32;37.37;;;22.33;;
16272;SDS011;8244;50.044;9.006;2023-02-10T10:02:39;38.37;;;21.83;;
16272;SDS011;8244;50.044;9.006;2023-02-10T10:07:50;37.93;;;21.53;;
16272;SDS011;8244;50.044;9.006;2023-02-10T10:12:54;39.70;;;21.17;;
16272;SDS011;8244;50.044;9.006;2023-02-10T10:17:58;37.13;;;21.20;;
16272;SDS011;8244;50.044;9.006;2023-02-10T10:23:19;36.53;;;20.87;;
16272;SDS011;8244;50.044;9.006;2023-02-10T10:28:33;37.07;;;21.53;;
16272;SDS011;8244;50.044;9.006;2023-02-10T10:33:45;36.00;;;20.70;;
16272;SDS011;8244;50.044;9.006;2023-02-10T10:38:53;37.83;;;21.97;;
16272;SDS011;8244;50.044;9.006;2023-02-10T10:43:56;38.93;;;20.83;;
16272;SDS011;8244;50.044;9.006;2023-02-10T10:48:58;36.77;;;22.37;;
16272;SDS011;8244;50.044;9.006;2023-02-10T10:54:04;37.87;;;21.70;;
16272;SDS011;8244;50.044;9.006;2023-02-10T10:59:10;33.90;;;20.97;;
16272;SDS011;8244;50.044;9.006;2023-02-10T11:04:15;40.47;;;22.20;;
16272;SDS011;8244;50.044;9.006;2023-02-10T11:09:23;38.20;;;21.57;;
16272;SDS011;8244;50.044;9.006;2023-02-10T11:14:35;35.70;;;19.97;;
16272;SDS011;8244;50.044;9.006;2023-02-10T11:19:40;39.13;;;23.20;;
16272;SDS011;8244;50.044;9.006;2023-02-10T11:24:54;36.50;;;21.67;;
16272;SDS011;8244;50.044;9.006;2023-02-10T11:29:58;35.17;;;20.67;;
16272;SDS011;8244;50.044;9.006;2023-02-10T11:35:02;40.63;;;22.50;;
16272;SDS011;8244;50.044;9.006;2023-02-10T11:40:17;34.37;;;21.20;;
16272;SDS011;8244;50.044;9.006;2023-02-10T11:45:22;35.72;;;21.25;;
16272;SDS011;8244;50.044;9.006;2023-02-10T11:50:25;38.63;;;22.95;;
16272;SDS011;8244;50.044;9.006;2023-02-10T11:55:33;36.75;;;22.77;;
16272;SDS011;8244;50.044;9.006;2023-02-10T12:00:44;36.33;;;21.73;;
16272;SDS011;8244;50.044;9.006;2023-02-10T12:05:56;33.28;;;20.08;;
16272;SDS011;8244;50.044;9.006;2023-02-10T12:11:08;37.30;;;23.00;;
16272;SDS011;8244;50.044;9.006;2023-02-10T12:16:16;35.53;;;22.08;;
16272;SDS011;8244;50.044;9.006;2023-02-10T12:21:28;35.58;;;20.83;;
16272;SDS011;8244;50.044;9.006;2023-02-10T12:26:45;33.78;;;21.40;;
16272;SDS011;8244;50.044;9.006;2023-02-10T12:31:53;35.63;;;20.98;;
16272;SDS011;8244;50.044;9.006;2023-02-10T12:37:07;35.20;;;22.73;;
16272;SDS011;8244;50.044;9.006;2023-02-10T12:42:26;33.92;;;20.63;;
16272;SDS011;8244;50.044;9.006;2023-02-10T12:47:41;34.92;;;22.50;;
16272;SDS011;8244;50.044;9.006;2023-02-10T12:52:49;36.75;;;22.30;;
16272;SDS011;8244;50.044;9.006;2023-02-10T12:57:57;34.08;;;21.75;;
16272;SDS011;8244;50.044;9.006;2023-02-10T13:03:04;35.67;;;21.98;;
16272;SDS011;8244;50.044;9.006;2023-02-10T13:08:11;38.75;;;22.48;;
16272;SDS011;8244;50.044;9.006;2023-02-10T13:13:20;37.75;;;22.25;;
16272;SDS011;8244;50.044;9.006;2023-02-10T13:18:25;34.28;;;21.75;;
16272;SDS011;8244;50.044;9.006;2023-02-10T13:23:30;34.60;;;21.42;;
16272;SDS011;8244;50.044;9.006;2023-02-10T13:28:42;32.25;;;21.35;;
16272;SDS011;8244;50.044;9.006;2023-02-10T13:33:51;35.72;;;22.33;;
16272;SDS011;8244;50.044;9.006;2023-02-10T13:39:02;37.05;;;22.23;;
16272;SDS011;8244;50.044;9.006;2023-02-10T13:44:15;45.55;;;24.95;;
16272;SDS011;8244;50.044;9.006;2023-02-10T13:49:24;49.78;;;29.33;;
16272;SDS011;8244;50.044;9.006;2023-02-10T13:54:29;32.60;;;22.30;;
16272;SDS011;8244;50.044;9.006;2023-02-10T13:59:37;37.45;;;22.17;;
16272;SDS011;8244;50.044;9.006;2023-02-10T14:04:41;35.72;;;22.38;;
16272;SDS011;8244;50.044;9.006;2023-02-10T14:09:46;33.60;;;20.70;;
16272;SDS011;8244;50.044;9.006;2023-02-10T14:14:49;45.10;;;23.95;;
16272;SDS011;8244;50.044;9.006;2023-02-10T14:19:50;36.38;;;22.20;;
16272;SDS011;8244;50.044;9.006;2023-02-10T14:24:52;71.78;;;33.05;;
16272;SDS011;8244;50.044;9.006;2023-02-10T14:30:00;35.72;;;21.65;;
16272;SDS011;8244;50.044;9.006;2023-02-10T14:35:14;32.67;;;20.92;;
16272;SDS011;8244;50.044;9.006;2023-02-10T14:40:17;35.75;;;20.17;;
16272;SDS011;8244;50.044;9.006;2023-02-10T14:45:22;31.38;;;19.83;;
16272;SDS011;8244;50.044;9.006;2023-02-10T14:50:27;36.47;;;22.27;;
16272;SDS011;8244;50.044;9.006;2023-02-10T14:55:31;35.38;;;22.35;;
16272;SDS011;8244;50.044;9.006;2023-02-10T15:00:36;33.88;;;21.42;;
16272;SDS011;8244;50.044;9.006;2023-02-10T15:05:43;37.13;;;23.60;;
16272;SDS011;8244;50.044;9.006;2023-02-10T15:10:48;36.85;;;23.23;;
16272;SDS011;8244;50.044;9.006;2023-02-10T15:15:54;36.63;;;23.75;;
16272;SDS011;8244;50.044;9.006;2023-02-10T15:20:57;37.88;;;22.25;;
16272;SDS011;8244;50.044;9.006;2023-02-10T15:26:01;35.03;;;22.08;;
16272;SDS011;8244;50.044;9.006;2023-02-10T15:31:18;40.30;;;23.13;;
16272;SDS011;8244;50.044;9.006;2023-02-10T15:36:25;38.83;;;22.33;;
16272;SDS011;8244;50.044;9.006;2023-02-10T15:41:36;36.92;;;22.15;;
16272;SDS011;8244;50.044;9.006;2023-02-10T15:46:41;39.67;;;23.92;;
16272;SDS011;8244;50.044;9.006;2023-02-10T15:51:44;42.60;;;22.23;;
16272;SDS011;8244;50.044;9.006;2023-02-10T15:56:54;47.00;;;27.50;;
16272;SDS011;8244;50.044;9.006;2023-02-10T16:01:58;58.97;;;32.10;;
16272;SDS011;8244;50.044;9.006;2023-02-10T16:07:01;49.58;;;29.73;;
16272;SDS011;8244;50.044;9.006;2023-02-10T16:12:04;41.90;;;23.48;;
16272;SDS011;8244;50.044;9.006;2023-02-10T16:17:08;39.28;;;24.05;;
16272;SDS011;8244;50.044;9.006;2023-02-10T16:22:10;44.55;;;25.58;;
16272;SDS011;8244;50.044;9.006;2023-02-10T16:27:11;42.35;;;24.90;;
16272;SDS011;8244;50.044;9.006;2023-02-10T16:32:14;41.55;;;26.55;;
16272;SDS011;8244;50.044;9.006;2023-02-10T16:37:17;40.57;;;24.47;;
16272;SDS011;8244;50.044;9.006;2023-02-10T16:42:20;36.40;;;23.13;;
16272;SDS011;8244;50.044;9.006;2023-02-10T16:47:23;43.67;;;24.10;;
16272;SDS011;8244;50.044;9.006;2023-02-10T16:52:25;42.17;;;24.17;;
16272;SDS011;8244;50.044;9.006;2023-02-10T16:57:26;40.23;;;23.50;;
16272;SDS011;8244;50.044;9.006;2023-02-10T17:02:29;43.80;;;25.47;;
16272;SDS011;8244;50.044;9.006;2023-02-10T17:07:32;37.07;;;23.27;;
16272;SDS011;8244;50.044;9.006;2023-02-10T17:12:33;38.90;;;23.80;;
16272;SDS011;8244;50.044;9.006;2023-02-10T17:17:36;42.03;;;24.93;;
16272;SDS011;8244;50.044;9.006;2023-02-10T17:22:38;46.40;;;26.90;;
16272;SDS011;8244;50.044;9.006;2023-02-10T17:27:42;43.80;;;25.23;;
16272;SDS011;8244;50.044;9.006;2023-02-10T17:32:45;46.73;;;24.93;;
16272;SDS011;8244;50.044;9.006;2023-02-10T17:37:47;41.07;;;23.53;;
16272;SDS011;8244;50.044;9.006;2023-02-10T17:42:50;44.37;;;24.77;;
16272;SDS011;8244;50.044;9.006;2023-02-10T17:47:54;43.30;;;24.60;;
16272;SDS011;8244;50.044;9.006;2023-02-10T17:52:55;41.03;;;25.03;;
16272;SDS011;8244;50.044;9.006;2023-02-10T17:57:57;39.90;;;23.37;;
16272;SDS011;8244;50.044;9.006;2023-02-10T18:03:00;39.07;;;23.13;;
16272;SDS011;8244;50.044;9.006;2023-02-10T18:08:01;41.67;;;24.50;;
16272;SDS011;8244;50.044;9.006;2023-02-10T18:13:03;33.20;;;20.47;;
16272;SDS011;8244;50.044;9.006;2023-02-10T18:18:06;42.80;;;24.37;;
16272;SDS011;8244;50.044;9.006;2023-02-10T18:23:08;52.33;;;28.90;;
16272;SDS011;8244;50.044;9.006;2023-02-10T18:28:10;52.17;;;28.20;;
16272;SDS011;8244;50.044;9.006;2023-02-10T18:33:13;42.80;;;24.70;;
16272;SDS011;8244;50.044;9.006;2023-02-10T18:38:15;41.20;;;26.10;;
16272;SDS011;8244;50.044;9.006;2023-02-10T18:43:17;47.97;;;25.33;;
16272;SDS011;8244;50.044;9.006;2023-02-10T18:48:20;39.80;;;23.83;;
16272;SDS011;8244;50.044;9.006;2023-02-10T18:53:21;47.33;;;25.10;;
16272;SDS011;8244;50.044;9.006;2023-02-10T18:58:23;41.77;;;24.60;;
16272;SDS011;8244;50.044;9.006;2023-02-10T19:03:26;43.73;;;24.80;;
16272;SDS011;8244;50.044;9.006;2023-02-10T19:08:28;47.10;;;23.70;;
16272;SDS011;8244;50.044;9.006;2023-02-10T19:13:30;94.03;;;32.77;;
16272;SDS011;8244;50.044;9.006;2023-02-10T19:18:33;153.70;;;42.67;;
16272;SDS011;8244;50.044;9.006;2023-02-10T19:23:36;107.87;;;36.40;;
16272;SDS011;8244;50.044;9.006;2023-02-10T19:28:38;48.97;;;25.57;;
16272;SDS011;8244;50.044;9.006;2023-02-10T19:33:42;50.13;;;26.23;;
16272;SDS011;8244;50.044;9.006;2023-02-10T19:38:46;46.83;;;25.40;;
16272;SDS011;8244;50.044;9.006;2023-02-10T19:43:48;55.17;;;28.57;;
16272;SDS011;8244;50.044;9.006;2023-02-10T19:48:53;50.87;;;27.70;;
16272;SDS011;8244;50.044;9.006;2023-02-10T19:53:55;49.80;;;26.53;;
16272;SDS011;8244;50.044;9.006;2023-02-10T19:58:57;47.70;;;26.20;;
16272;SDS011;8244;50.044;9.006;2023-02-10T20:04:00;54.90;;;29.03;;
16272;SDS011;8244;50.044;9.006;2023-02-10T20:09:02;51.33;;;27.80;;
16272;SDS011;8244;50.044;9.006;2023-02-10T20:14:04;55.27;;;28.77;;
16272;SDS011;8244;50.044;9.006;2023-02-10T20:19:11;53.57;;;28.70;;
16272;SDS011;8244;50.044;9.006;2023-02-10T20:24:18;63.00;;;30.17;;
16272;SDS011;8244;50.044;9.006;2023-02-10T20:29:19;56.80;;;29.57;;
16272;SDS011;8244;50.044;9.006;2023-02-10T20:34:22;60.80;;;30.93;;
16272;SDS011;8244;50.044;9.006;2023-02-10T20:39:24;55.13;;;28.73;;
16272;SDS011;8244;50.044;9.006;2023-02-10T20:44:26;51.83;;;27.77;;
16272;SDS011;8244;50.044;9.006;2023-02-10T20:49:29;52.23;;;27.90;;
16272;SDS011;8244;50.044;9.006;2023-02-10T20:54:31;54.70;;;26.97;;
16272;SDS011;8244;50.044;9.006;2023-02-10T20:59:33;57.87;;;28.07;;
16272;SDS011;8244;50.044;9.006;2023-02-10T21:04:36;55.03;;;29.27;;
16272;SDS011;8244;50.044;9.006;2023-02-10T21:09:37;61.03;;;31.77;;
16272;SDS011;8244;50.044;9.006;2023-02-10T21:14:39;57.30;;;31.50;;
16272;SDS011;8244;50.044;9.006;2023-02-10T21:19:42;61.47;;;30.73;;
16272;SDS011;8244;50.044;9.006;2023-02-10T21:24:44;58.40;;;30.43;;
16272;SDS011;8244;50.044;9.006;2023-02-10T21:29:45;58.67;;;31.50;;
16272;SDS011;8244;50.044;9.006;2023-02-10T21:34:48;68.77;;;33.47;;
16272;SDS011;8244;50.044;9.006;2023-02-10T21:39:50;62.33;;;31.70;;
16272;SDS011;8244;50.044;9.006;2023-02-10T21:44:52;68.27;;;33.63;;
16272;SDS011;8244;50.044;9.006;2023-02-10T21:49:57;70.97;;;32.87;;
16272;SDS011;8244;50.044;9.006;2023-02-10T21:54:59;61.37;;;30.93;;
16272;SDS011;8244;50.044;9.006;2023-02-10T22:00:00;57.37;;;30.97;;
16272;SDS011;8244;50.044;9.006;2023-02-10T22:05:05;55.20;;;28.97;;
16272;SDS011;8244;50.044;9.006;2023-02-10T22:10:07;69.27;;;34.77;;
16272;SDS011;8244;50.044;9.006;2023-02-10T22:15:09;59.47;;;31.63;;
16272;SDS011;8244;50.044;9.006;2023-02-10T22:20:12;57.87;;;30.33;;
16272;SDS011;8244;50.044;9.006;2023-02-10T22:25:14;59.20;;;29.30;;
16272;SDS011;8244;50.044;9.006;2023-02-10T22:30:16;60.73;;;30.63;;
16272;SDS011;8244;50.044;9.006;2023-02-10T22:35:19;65.60;;;33.10;;
16272;SDS011;8244;50.044;9.006;2023-02-10T22:40:20;69.70;;;33.30;;
16272;SDS011;8244;50.044;9.006;2023-02-10T22:45:22;62.60;;;30.53;;
16272;SDS011;8244;50.044;9.006;2023-02-10T22:50:25;62.93;;;32.23;;
16272;SDS011;8244;50.044;9.006;2023-02-10T22:55:27;64.17;;;31.60;;
16272;SDS011;8244;50.044;9.006;2023-02-10T23:00:29;57.97;;;31.20;;
16272;SDS011;8244;50.044;9.006;2023-02-10T23:05:32;64.97;;;33.87;;
16272;SDS011;8244;50.044;9.006;2023-02-10T23:10:34;63.77;;;33.03;;
16272;SDS011;8244;50.044;9.006;2023-02-10T23:15:35;68.93;;;33.57;;
16272;SDS011;8244;50.044;9.006;2023-02-10T23:20:38;63.70;;;32.83;;
16272;SDS011;8244;50.044;9.006;2023-02-10T23:25:43;69.37;;;34.97;;
16272;SDS011;8244;50.044;9.006;2023-02-10T23:30:45;54.90;;;28.27;;
16272;SDS011;8244;50.044;9.006;2023-02-10T23:35:49;55.10;;;29.97;;
16272;SDS011;8244;50.044;9.006;2023-02-10T23:40:51;56.13;;;29.00;;
16272;SDS011;8244;50.044;9.006;2023-02-10T23:45:53;56.67;;;30.60;;
16272;SDS011;8244;50.044;9.006;2023-02-10T23:50:56;57.27;;;30.77;;
16272;SDS011;8244;50.044;9.006;2023-02-10T23:55:57;57.13;;;31.60;;
